sensor_id;sensor_type;location;lat;lon;timestamp;P1;durP1;ratioP1;P2;durP2;ratioP2
2698;SDS011;1359;51.798;12.174;2022-09-09T00:01:42;5.50;;;4.97;;
2698;SDS011;1359;51.798;12.174;2022-09-09T00:06:48;5.30;;;4.63;;
2698;SDS011;1359;51.798;12.174;2022-09-09T00:09:16;5.30;;;4.50;;
2698;SDS011;1359;51.798;12.174;2022-09-09T00:11:52;6.40;;;4.63;;
2698;SDS011;1359;51.798;12.174;2022-09-09T00:14:26;5.07;;;4.47;;
2698;SDS011;1359;51.798;12.174;2022-09-09T00:16:57;5.67;;;5.17;;
2698;SDS011;1359;51.798;12.174;2022-09-09T00:19:28;4.83;;;4.43;;
2698;SDS011;1359;51.798;12.174;2022-09-09T00:22:00;4.97;;;4.43;;
2698;SDS011;1359;51.798;12.174;2022-09-09T00:24:31;4.90;;;4.30;;
2698;SDS011;1359;51.798;12.174;2022-09-09T00:27:00;6.43;;;4.17;;
2698;SDS011;1359;51.798;12.174;2022-09-09T00:29:28;4.30;;;3.90;;
2698;SDS011;1359;51.798;12.174;2022-09-09T00:31:59;5.73;;;3.60;;
2698;SDS011;1359;51.798;12.174;2022-09-09T00:34:28;3.90;;;3.60;;
2698;SDS011;1359;51.798;12.174;2022-09-09T00:36:54;5.43;;;3.90;;
2698;SDS011;1359;51.798;12.174;2022-09-09T00:44:38;5.67;;;3.43;;
2698;SDS011;1359;51.798;12.174;2022-09-09T00:49:39;4.00;;;3.53;;
2698;SDS011;1359;51.798;12.174;2022-09-09T00:57:23;5.20;;;2.87;;
2698;SDS011;1359;51.798;12.174;2022-09-09T00:59:56;6.73;;;4.00;;
2698;SDS011;1359;51.798;12.174;2022-09-09T01:04:53;4.30;;;3.53;;
2698;SDS011;1359;51.798;12.174;2022-09-09T01:07:19;3.40;;;3.10;;
2698;SDS011;1359;51.798;12.174;2022-09-09T01:09:57;4.90;;;3.87;;
2698;SDS011;1359;51.798;12.174;2022-09-09T01:12:25;4.50;;;3.20;;
2698;SDS011;1359;51.798;12.174;2022-09-09T01:14:53;3.13;;;2.83;;
2698;SDS011;1359;51.798;12.174;2022-09-09T01:17:23;2.97;;;2.77;;
2698;SDS011;1359;51.798;12.174;2022-09-09T01:19:57;3.30;;;2.63;;
2698;SDS011;1359;51.798;12.174;2022-09-09T01:27:43;5.43;;;2.77;;
2698;SDS011;1359;51.798;12.174;2022-09-09T01:30:11;5.63;;;2.87;;
2698;SDS011;1359;51.798;12.174;2022-09-09T01:32:39;2.97;;;2.73;;
2698;SDS011;1359;51.798;12.174;2022-09-09T01:35:05;3.27;;;2.97;;
2698;SDS011;1359;51.798;12.174;2022-09-09T01:37:32;5.00;;;2.87;;
2698;SDS011;1359;51.798;12.174;2022-09-09T01:39:57;4.50;;;3.70;;
2698;SDS011;1359;51.798;12.174;2022-09-09T01:42:22;8.03;;;3.10;;
2698;SDS011;1359;51.798;12.174;2022-09-09T01:44:48;7.33;;;2.73;;
2698;SDS011;1359;51.798;12.174;2022-09-09T01:47:14;7.40;;;3.23;;
2698;SDS011;1359;51.798;12.174;2022-09-09T01:49:39;5.80;;;3.57;;
2698;SDS011;1359;51.798;12.174;2022-09-09T01:52:04;4.13;;;3.07;;
2698;SDS011;1359;51.798;12.174;2022-09-09T01:54:31;5.47;;;3.20;;
2698;SDS011;1359;51.798;12.174;2022-09-09T01:59:36;3.70;;;2.67;;
2698;SDS011;1359;51.798;12.174;2022-09-09T02:02:13;4.50;;;3.60;;
2698;SDS011;1359;51.798;12.174;2022-09-09T02:04:43;4.50;;;4.10;;
2698;SDS011;1359;51.798;12.174;2022-09-09T02:07:31;4.10;;;3.70;;
2698;SDS011;1359;51.798;12.174;2022-09-09T02:09:57;3.83;;;2.87;;
2698;SDS011;1359;51.798;12.174;2022-09-09T02:12:23;5.10;;;4.33;;
2698;SDS011;1359;51.798;12.174;2022-09-09T02:14:51;4.10;;;2.80;;
2698;SDS011;1359;51.798;12.174;2022-09-09T02:17:19;4.60;;;3.10;;
2698;SDS011;1359;51.798;12.174;2022-09-09T02:19:52;3.00;;;2.80;;
2698;SDS011;1359;51.798;12.174;2022-09-09T02:22:19;3.83;;;2.70;;
2698;SDS011;1359;51.798;12.174;2022-09-09T02:24:45;3.50;;;3.20;;
2698;SDS011;1359;51.798;12.174;2022-09-09T02:27:12;4.53;;;3.13;;
2698;SDS011;1359;51.798;12.174;2022-09-09T02:29:41;3.70;;;3.40;;
2698;SDS011;1359;51.798;12.174;2022-09-09T02:32:14;4.00;;;2.97;;
2698;SDS011;1359;51.798;12.174;2022-09-09T02:34:41;4.43;;;3.10;;
2698;SDS011;1359;51.798;12.174;2022-09-09T02:37:07;5.30;;;3.60;;
2698;SDS011;1359;51.798;12.174;2022-09-09T02:39:33;6.60;;;3.27;;
2698;SDS011;1359;51.798;12.174;2022-09-09T02:41:59;6.57;;;3.30;;
2698;SDS011;1359;51.798;12.174;2022-09-09T02:44:24;5.00;;;3.43;;
2698;SDS011;1359;51.798;12.174;2022-09-09T02:49:19;5.90;;;3.40;;
2698;SDS011;1359;51.798;12.174;2022-09-09T02:51:52;2.83;;;2.63;;
2698;SDS011;1359;51.798;12.174;2022-09-09T02:54:30;6.70;;;2.40;;
2698;SDS011;1359;51.798;12.174;2022-09-09T02:56:55;3.77;;;3.37;;
2698;SDS011;1359;51.798;12.174;2022-09-09T02:59:22;6.20;;;2.97;;
2698;SDS011;1359;51.798;12.174;2022-09-09T03:01:49;4.63;;;2.60;;
2698;SDS011;1359;51.798;12.174;2022-09-09T03:04:14;2.63;;;2.43;;
2698;SDS011;1359;51.798;12.174;2022-09-09T03:06:39;9.50;;;3.23;;
2698;SDS011;1359;51.798;12.174;2022-09-09T03:09:05;5.00;;;2.80;;
2698;SDS011;1359;51.798;12.174;2022-09-09T03:11:30;5.30;;;2.70;;
2698;SDS011;1359;51.798;12.174;2022-09-09T03:13:55;3.90;;;2.73;;
2698;SDS011;1359;51.798;12.174;2022-09-09T03:16:21;3.00;;;2.70;;
2698;SDS011;1359;51.798;12.174;2022-09-09T03:18:47;3.40;;;2.40;;
2698;SDS011;1359;51.798;12.174;2022-09-09T03:21:12;4.00;;;3.00;;
2698;SDS011;1359;51.798;12.174;2022-09-09T03:23:37;5.30;;;2.43;;
2698;SDS011;1359;51.798;12.174;2022-09-09T03:26:02;6.13;;;3.50;;
2698;SDS011;1359;51.798;12.174;2022-09-09T03:28:27;3.73;;;3.43;;
2698;SDS011;1359;51.798;12.174;2022-09-09T03:31:03;3.13;;;2.83;;
2698;SDS011;1359;51.798;12.174;2022-09-09T03:33:28;5.23;;;3.00;;
2698;SDS011;1359;51.798;12.174;2022-09-09T03:35:54;7.23;;;3.30;;
2698;SDS011;1359;51.798;12.174;2022-09-09T03:38:21;4.10;;;3.60;;
2698;SDS011;1359;51.798;12.174;2022-09-09T03:40:52;4.07;;;2.97;;
2698;SDS011;1359;51.798;12.174;2022-09-09T03:43:20;3.07;;;2.27;;
2698;SDS011;1359;51.798;12.174;2022-09-09T03:45:46;4.13;;;2.80;;
2698;SDS011;1359;51.798;12.174;2022-09-09T03:48:12;4.60;;;3.00;;
2698;SDS011;1359;51.798;12.174;2022-09-09T03:50:37;6.70;;;2.40;;
2698;SDS011;1359;51.798;12.174;2022-09-09T03:53:02;3.25;;;2.45;;
2698;SDS011;1359;51.798;12.174;2022-09-09T03:55:28;4.15;;;2.65;;
2698;SDS011;1359;51.798;12.174;2022-09-09T03:57:53;3.38;;;2.45;;
2698;SDS011;1359;51.798;12.174;2022-09-09T04:00:18;3.72;;;2.97;;
2698;SDS011;1359;51.798;12.174;2022-09-09T04:02:43;5.63;;;2.70;;
2698;SDS011;1359;51.798;12.174;2022-09-09T04:05:08;4.68;;;2.83;;
2698;SDS011;1359;51.798;12.174;2022-09-09T04:07:34;6.30;;;5.00;;
2698;SDS011;1359;51.798;12.174;2022-09-09T04:09:59;4.00;;;3.00;;
2698;SDS011;1359;51.798;12.174;2022-09-09T04:12:24;3.93;;;3.53;;
2698;SDS011;1359;51.798;12.174;2022-09-09T04:14:49;10.70;;;2.67;;
2698;SDS011;1359;51.798;12.174;2022-09-09T04:17:15;7.23;;;3.30;;
2698;SDS011;1359;51.798;12.174;2022-09-09T04:19:40;3.40;;;2.30;;
2698;SDS011;1359;51.798;12.174;2022-09-09T04:22:05;6.17;;;2.63;;
2698;SDS011;1359;51.798;12.174;2022-09-09T04:24:30;6.90;;;3.25;;
2698;SDS011;1359;51.798;12.174;2022-09-09T04:26:55;2.87;;;2.67;;
2698;SDS011;1359;51.798;12.174;2022-09-09T04:29:21;2.85;;;2.60;;
2698;SDS011;1359;51.798;12.174;2022-09-09T04:31:46;6.40;;;2.63;;
2698;SDS011;1359;51.798;12.174;2022-09-09T04:34:11;4.78;;;2.47;;
2698;SDS011;1359;51.798;12.174;2022-09-09T04:36:36;6.93;;;3.10;;
2698;SDS011;1359;51.798;12.174;2022-09-09T04:39:01;8.48;;;3.92;;
2698;SDS011;1359;51.798;12.174;2022-09-09T04:41:26;6.43;;;3.07;;
2698;SDS011;1359;51.798;12.174;2022-09-09T04:43:52;3.80;;;3.27;;
2698;SDS011;1359;51.798;12.174;2022-09-09T04:46:18;9.77;;;3.20;;
2698;SDS011;1359;51.798;12.174;2022-09-09T04:48:43;3.47;;;3.00;;
2698;SDS011;1359;51.798;12.174;2022-09-09T04:51:11;12.93;;;3.60;;
2698;SDS011;1359;51.798;12.174;2022-09-09T04:53:36;4.73;;;3.10;;
2698;SDS011;1359;51.798;12.174;2022-09-09T04:56:15;4.80;;;4.00;;
2698;SDS011;1359;51.798;12.174;2022-09-09T04:58:41;6.33;;;3.13;;
2698;SDS011;1359;51.798;12.174;2022-09-09T05:01:11;5.67;;;3.13;;
2698;SDS011;1359;51.798;12.174;2022-09-09T05:03:37;6.60;;;3.33;;
2698;SDS011;1359;51.798;12.174;2022-09-09T05:06:18;5.03;;;3.30;;
2698;SDS011;1359;51.798;12.174;2022-09-09T05:08:43;3.70;;;2.83;;
2698;SDS011;1359;51.798;12.174;2022-09-09T05:13:41;4.80;;;3.50;;
2698;SDS011;1359;51.798;12.174;2022-09-09T05:16:06;6.67;;;4.60;;
2698;SDS011;1359;51.798;12.174;2022-09-09T05:18:31;7.80;;;4.15;;
2698;SDS011;1359;51.798;12.174;2022-09-09T05:20:59;7.28;;;3.47;;
2698;SDS011;1359;51.798;12.174;2022-09-09T05:23:25;5.00;;;3.80;;
2698;SDS011;1359;51.798;12.174;2022-09-09T05:25:55;6.53;;;3.80;;
2698;SDS011;1359;51.798;12.174;2022-09-09T05:28:20;5.87;;;3.17;;
2698;SDS011;1359;51.798;12.174;2022-09-09T05:30:45;5.75;;;3.85;;
2698;SDS011;1359;51.798;12.174;2022-09-09T05:33:10;6.43;;;3.63;;
2698;SDS011;1359;51.798;12.174;2022-09-09T05:35:35;5.63;;;4.33;;
2698;SDS011;1359;51.798;12.174;2022-09-09T05:38:01;6.30;;;4.13;;
2698;SDS011;1359;51.798;12.174;2022-09-09T05:40:26;9.67;;;4.60;;
2698;SDS011;1359;51.798;12.174;2022-09-09T05:42:52;5.03;;;3.90;;
2698;SDS011;1359;51.798;12.174;2022-09-09T05:45:18;4.90;;;3.93;;
2698;SDS011;1359;51.798;12.174;2022-09-09T05:47:44;5.37;;;3.50;;
2698;SDS011;1359;51.798;12.174;2022-09-09T05:50:09;4.45;;;3.95;;
2698;SDS011;1359;51.798;12.174;2022-09-09T05:52:34;11.30;;;3.77;;
2698;SDS011;1359;51.798;12.174;2022-09-09T05:55:00;6.05;;;3.55;;
2698;SDS011;1359;51.798;12.174;2022-09-09T05:57:25;4.50;;;4.20;;
2698;SDS011;1359;51.798;12.174;2022-09-09T05:59:50;3.47;;;3.10;;
2698;SDS011;1359;51.798;12.174;2022-09-09T06:02:15;13.52;;;4.07;;
2698;SDS011;1359;51.798;12.174;2022-09-09T06:04:40;5.40;;;3.92;;
2698;SDS011;1359;51.798;12.174;2022-09-09T06:07:05;4.30;;;3.63;;
2698;SDS011;1359;51.798;12.174;2022-09-09T06:09:30;6.82;;;3.95;;
2698;SDS011;1359;51.798;12.174;2022-09-09T06:11:56;4.07;;;3.25;;
2698;SDS011;1359;51.798;12.174;2022-09-09T06:14:23;6.13;;;3.83;;
2698;SDS011;1359;51.798;12.174;2022-09-09T06:16:49;8.93;;;4.00;;
2698;SDS011;1359;51.798;12.174;2022-09-09T06:19:14;5.43;;;3.77;;
2698;SDS011;1359;51.798;12.174;2022-09-09T06:21:39;5.60;;;3.72;;
2698;SDS011;1359;51.798;12.174;2022-09-09T06:24:05;5.57;;;3.60;;
2698;SDS011;1359;51.798;12.174;2022-09-09T06:26:32;4.60;;;3.33;;
2698;SDS011;1359;51.798;12.174;2022-09-09T06:28:58;8.50;;;4.40;;
2698;SDS011;1359;51.798;12.174;2022-09-09T06:31:25;6.97;;;4.17;;
2698;SDS011;1359;51.798;12.174;2022-09-09T06:33:51;5.90;;;4.43;;
2698;SDS011;1359;51.798;12.174;2022-09-09T06:38:42;7.57;;;3.43;;
2698;SDS011;1359;51.798;12.174;2022-09-09T06:41:08;3.90;;;3.33;;
2698;SDS011;1359;51.798;12.174;2022-09-09T06:43:33;3.50;;;2.93;;
2698;SDS011;1359;51.798;12.174;2022-09-09T06:46:04;3.53;;;2.90;;
2698;SDS011;1359;51.798;12.174;2022-09-09T06:48:30;6.87;;;3.10;;
2698;SDS011;1359;51.798;12.174;2022-09-09T06:53:54;5.50;;;3.10;;
2698;SDS011;1359;51.798;12.174;2022-09-09T06:56:24;3.90;;;3.50;;
2698;SDS011;1359;51.798;12.174;2022-09-09T06:58:50;5.13;;;3.13;;
2698;SDS011;1359;51.798;12.174;2022-09-09T07:01:17;5.10;;;3.50;;
2698;SDS011;1359;51.798;12.174;2022-09-09T07:03:45;11.23;;;4.07;;
2698;SDS011;1359;51.798;12.174;2022-09-09T07:06:23;11.20;;;3.60;;
2698;SDS011;1359;51.798;12.174;2022-09-09T07:08:52;6.80;;;2.97;;
2698;SDS011;1359;51.798;12.174;2022-09-09T07:11:18;6.47;;;3.33;;
2698;SDS011;1359;51.798;12.174;2022-09-09T07:13:44;6.47;;;3.03;;
2698;SDS011;1359;51.798;12.174;2022-09-09T07:16:10;6.00;;;3.60;;
2698;SDS011;1359;51.798;12.174;2022-09-09T07:18:35;4.83;;;3.70;;
2698;SDS011;1359;51.798;12.174;2022-09-09T07:21:01;6.85;;;3.80;;
2698;SDS011;1359;51.798;12.174;2022-09-09T07:23:26;3.67;;;3.07;;
2698;SDS011;1359;51.798;12.174;2022-09-09T07:25:52;7.75;;;2.63;;
2698;SDS011;1359;51.798;12.174;2022-09-09T07:28:17;8.83;;;3.60;;
2698;SDS011;1359;51.798;12.174;2022-09-09T07:30:43;4.97;;;2.73;;
2698;SDS011;1359;51.798;12.174;2022-09-09T07:33:08;15.95;;;4.35;;
2698;SDS011;1359;51.798;12.174;2022-09-09T07:35:34;11.93;;;3.53;;
2698;SDS011;1359;51.798;12.174;2022-09-09T07:38:00;4.13;;;2.93;;
2698;SDS011;1359;51.798;12.174;2022-09-09T07:40:25;5.67;;;4.10;;
2698;SDS011;1359;51.798;12.174;2022-09-09T07:42:51;3.40;;;3.10;;
2698;SDS011;1359;51.798;12.174;2022-09-09T07:45:16;5.53;;;3.10;;
2698;SDS011;1359;51.798;12.174;2022-09-09T07:47:41;4.87;;;3.30;;
2698;SDS011;1359;51.798;12.174;2022-09-09T07:50:09;6.70;;;3.23;;
2698;SDS011;1359;51.798;12.174;2022-09-09T07:52:35;6.07;;;2.93;;
2698;SDS011;1359;51.798;12.174;2022-09-09T07:55:00;5.13;;;2.87;;
2698;SDS011;1359;51.798;12.174;2022-09-09T07:57:27;3.53;;;3.23;;
2698;SDS011;1359;51.798;12.174;2022-09-09T07:59:55;3.50;;;3.10;;
2698;SDS011;1359;51.798;12.174;2022-09-09T08:02:21;7.20;;;3.60;;
2698;SDS011;1359;51.798;12.174;2022-09-09T08:04:46;3.40;;;2.60;;
2698;SDS011;1359;51.798;12.174;2022-09-09T08:07:11;4.23;;;3.03;;
2698;SDS011;1359;51.798;12.174;2022-09-09T08:09:36;5.70;;;2.42;;
2698;SDS011;1359;51.798;12.174;2022-09-09T08:12:02;5.38;;;2.90;;
2698;SDS011;1359;51.798;12.174;2022-09-09T08:14:27;3.33;;;2.27;;
2698;SDS011;1359;51.798;12.174;2022-09-09T08:16:52;2.20;;;2.00;;
2698;SDS011;1359;51.798;12.174;2022-09-09T08:19:19;3.67;;;2.70;;
2698;SDS011;1359;51.798;12.174;2022-09-09T08:21:44;3.50;;;1.70;;
2698;SDS011;1359;51.798;12.174;2022-09-09T08:24:10;6.00;;;2.60;;
2698;SDS011;1359;51.798;12.174;2022-09-09T08:26:37;5.00;;;2.40;;
2698;SDS011;1359;51.798;12.174;2022-09-09T08:29:03;5.80;;;1.80;;
2698;SDS011;1359;51.798;12.174;2022-09-09T08:31:32;3.23;;;1.97;;
2698;SDS011;1359;51.798;12.174;2022-09-09T08:33:58;4.50;;;2.00;;
2698;SDS011;1359;51.798;12.174;2022-09-09T08:36:26;5.80;;;1.90;;
2698;SDS011;1359;51.798;12.174;2022-09-09T08:38:52;5.53;;;1.90;;
2698;SDS011;1359;51.798;12.174;2022-09-09T08:41:37;6.60;;;1.90;;
2698;SDS011;1359;51.798;12.174;2022-09-09T08:44:10;4.03;;;2.30;;
2698;SDS011;1359;51.798;12.174;2022-09-09T08:46:42;2.97;;;2.23;;
2698;SDS011;1359;51.798;12.174;2022-09-09T08:51:53;6.27;;;2.37;;
2698;SDS011;1359;51.798;12.174;2022-09-09T08:54:20;5.90;;;2.40;;
2698;SDS011;1359;51.798;12.174;2022-09-09T08:56:45;3.13;;;2.40;;
2698;SDS011;1359;51.798;12.174;2022-09-09T08:59:11;4.27;;;2.60;;
2698;SDS011;1359;51.798;12.174;2022-09-09T09:01:41;2.63;;;1.97;;
2698;SDS011;1359;51.798;12.174;2022-09-09T09:04:13;5.00;;;2.80;;
2698;SDS011;1359;51.798;12.174;2022-09-09T09:11:40;5.63;;;2.20;;
2698;SDS011;1359;51.798;12.174;2022-09-09T09:14:11;8.87;;;2.70;;
2698;SDS011;1359;51.798;12.174;2022-09-09T09:16:41;5.70;;;2.07;;
2698;SDS011;1359;51.798;12.174;2022-09-09T09:19:14;4.60;;;2.17;;
2698;SDS011;1359;51.798;12.174;2022-09-09T09:21:41;3.50;;;1.83;;
2698;SDS011;1359;51.798;12.174;2022-09-09T09:24:09;6.93;;;2.07;;
2698;SDS011;1359;51.798;12.174;2022-09-09T09:26:37;5.00;;;2.13;;
2698;SDS011;1359;51.798;12.174;2022-09-09T09:29:16;6.28;;;2.17;;
2698;SDS011;1359;51.798;12.174;2022-09-09T09:31:52;2.57;;;2.00;;
2698;SDS011;1359;51.798;12.174;2022-09-09T09:34:19;2.87;;;1.77;;
2698;SDS011;1359;51.798;12.174;2022-09-09T09:36:45;5.80;;;2.40;;
2698;SDS011;1359;51.798;12.174;2022-09-09T09:39:21;7.63;;;3.00;;
2698;SDS011;1359;51.798;12.174;2022-09-09T09:41:47;4.93;;;2.10;;
2698;SDS011;1359;51.798;12.174;2022-09-09T09:44:26;2.13;;;1.60;;
2698;SDS011;1359;51.798;12.174;2022-09-09T09:46:51;2.73;;;2.00;;
2698;SDS011;1359;51.798;12.174;2022-09-09T09:49:17;3.10;;;2.33;;
2698;SDS011;1359;51.798;12.174;2022-09-09T09:51:42;9.63;;;2.20;;
2698;SDS011;1359;51.798;12.174;2022-09-09T09:56:38;3.67;;;1.67;;
2698;SDS011;1359;51.798;12.174;2022-09-09T09:59:05;6.20;;;2.10;;
2698;SDS011;1359;51.798;12.174;2022-09-09T10:01:31;3.30;;;2.00;;
2698;SDS011;1359;51.798;12.174;2022-09-09T10:06:43;4.83;;;2.50;;
2698;SDS011;1359;51.798;12.174;2022-09-09T10:09:24;11.93;;;3.65;;
2698;SDS011;1359;51.798;12.174;2022-09-09T10:17:15;5.20;;;2.10;;
2698;SDS011;1359;51.798;12.174;2022-09-09T10:22:31;4.37;;;2.93;;
2698;SDS011;1359;51.798;12.174;2022-09-09T10:25:05;4.60;;;2.50;;
2698;SDS011;1359;51.798;12.174;2022-09-09T10:37:31;2.43;;;1.87;;
2698;SDS011;1359;51.798;12.174;2022-09-09T10:40:17;5.10;;;2.37;;
2698;SDS011;1359;51.798;12.174;2022-09-09T10:42:45;5.30;;;2.10;;
2698;SDS011;1359;51.798;12.174;2022-09-09T10:45:17;2.63;;;2.10;;
2698;SDS011;1359;51.798;12.174;2022-09-09T10:48:01;2.30;;;1.90;;
2698;SDS011;1359;51.798;12.174;2022-09-09T10:50:40;4.43;;;2.03;;
2698;SDS011;1359;51.798;12.174;2022-09-09T10:53:22;3.47;;;2.43;;
2698;SDS011;1359;51.798;12.174;2022-09-09T10:55:53;6.80;;;2.77;;
2698;SDS011;1359;51.798;12.174;2022-09-09T10:58:29;5.20;;;2.40;;
2698;SDS011;1359;51.798;12.174;2022-09-09T11:00:58;4.63;;;1.93;;
2698;SDS011;1359;51.798;12.174;2022-09-09T11:03:26;14.83;;;2.90;;
2698;SDS011;1359;51.798;12.174;2022-09-09T11:05:59;2.17;;;1.80;;
2698;SDS011;1359;51.798;12.174;2022-09-09T11:08:26;3.03;;;2.33;;
2698;SDS011;1359;51.798;12.174;2022-09-09T11:11:02;3.03;;;1.80;;
2698;SDS011;1359;51.798;12.174;2022-09-09T11:13:30;3.30;;;2.00;;
2698;SDS011;1359;51.798;12.174;2022-09-09T11:16:04;6.60;;;2.20;;
2698;SDS011;1359;51.798;12.174;2022-09-09T11:18:29;2.70;;;2.03;;
2698;SDS011;1359;51.798;12.174;2022-09-09T11:20:58;2.57;;;1.80;;
2698;SDS011;1359;51.798;12.174;2022-09-09T11:23:25;4.90;;;2.00;;
2698;SDS011;1359;51.798;12.174;2022-09-09T11:25:54;4.13;;;2.20;;
2698;SDS011;1359;51.798;12.174;2022-09-09T11:36:10;3.70;;;2.30;;
2698;SDS011;1359;51.798;12.174;2022-09-09T11:38:44;7.37;;;2.67;;
2698;SDS011;1359;51.798;12.174;2022-09-09T11:41:10;5.87;;;2.10;;
2698;SDS011;1359;51.798;12.174;2022-09-09T11:43:45;5.70;;;2.20;;
2698;SDS011;1359;51.798;12.174;2022-09-09T11:46:12;2.30;;;2.07;;
2698;SDS011;1359;51.798;12.174;2022-09-09T11:48:40;9.00;;;2.40;;
2698;SDS011;1359;51.798;12.174;2022-09-09T11:56:24;6.30;;;2.37;;
2698;SDS011;1359;51.798;12.174;2022-09-09T11:59:00;4.20;;;2.30;;
2698;SDS011;1359;51.798;12.174;2022-09-09T12:01:43;4.60;;;1.93;;
2698;SDS011;1359;51.798;12.174;2022-09-09T12:06:49;6.78;;;2.50;;
2698;SDS011;1359;51.798;12.174;2022-09-09T12:11:43;5.70;;;2.10;;
2698;SDS011;1359;51.798;12.174;2022-09-09T12:14:19;6.23;;;2.30;;
2698;SDS011;1359;51.798;12.174;2022-09-09T12:16:44;2.53;;;2.33;;
2698;SDS011;1359;51.798;12.174;2022-09-09T12:19:19;5.10;;;1.83;;
2698;SDS011;1359;51.798;12.174;2022-09-09T12:21:49;5.63;;;3.33;;
2698;SDS011;1359;51.798;12.174;2022-09-09T12:24:27;5.90;;;2.13;;
2698;SDS011;1359;51.798;12.174;2022-09-09T12:27:15;4.40;;;2.13;;
2698;SDS011;1359;51.798;12.174;2022-09-09T12:29:44;5.63;;;2.13;;
2698;SDS011;1359;51.798;12.174;2022-09-09T12:32:15;6.13;;;2.30;;
2698;SDS011;1359;51.798;12.174;2022-09-09T12:34:44;7.83;;;2.30;;
2698;SDS011;1359;51.798;12.174;2022-09-09T12:37:14;7.57;;;2.00;;
2698;SDS011;1359;51.798;12.174;2022-09-09T12:39:47;2.50;;;2.10;;
2698;SDS011;1359;51.798;12.174;2022-09-09T12:42:16;4.10;;;2.50;;
2698;SDS011;1359;51.798;12.174;2022-09-09T12:44:50;3.63;;;1.93;;
2698;SDS011;1359;51.798;12.174;2022-09-09T12:47:15;3.90;;;1.97;;
2698;SDS011;1359;51.798;12.174;2022-09-09T12:49:40;5.78;;;2.22;;
2698;SDS011;1359;51.798;12.174;2022-09-09T12:52:07;2.93;;;2.30;;
2698;SDS011;1359;51.798;12.174;2022-09-09T12:54:35;2.90;;;2.40;;
2698;SDS011;1359;51.798;12.174;2022-09-09T12:57:01;6.23;;;2.90;;
2698;SDS011;1359;51.798;12.174;2022-09-09T12:59:27;8.23;;;2.77;;
2698;SDS011;1359;51.798;12.174;2022-09-09T13:01:59;4.17;;;3.00;;
2698;SDS011;1359;51.798;12.174;2022-09-09T13:04:24;5.63;;;3.27;;
2698;SDS011;1359;51.798;12.174;2022-09-09T13:06:49;7.00;;;3.50;;
2698;SDS011;1359;51.798;12.174;2022-09-09T13:09:14;4.82;;;3.15;;
2698;SDS011;1359;51.798;12.174;2022-09-09T13:11:43;7.70;;;3.03;;
2698;SDS011;1359;51.798;12.174;2022-09-09T13:14:14;3.97;;;2.93;;
2698;SDS011;1359;51.798;12.174;2022-09-09T13:16:54;7.73;;;2.70;;
2698;SDS011;1359;51.798;12.174;2022-09-09T13:19:19;2.33;;;2.13;;
2698;SDS011;1359;51.798;12.174;2022-09-09T13:21:46;2.10;;;1.90;;
2698;SDS011;1359;51.798;12.174;2022-09-09T13:26:58;2.53;;;1.60;;
2698;SDS011;1359;51.798;12.174;2022-09-09T13:29:25;7.13;;;2.13;;
2698;SDS011;1359;51.798;12.174;2022-09-09T13:31:50;1.80;;;1.70;;
2698;SDS011;1359;51.798;12.174;2022-09-09T13:34:31;7.33;;;2.37;;
2698;SDS011;1359;51.798;12.174;2022-09-09T13:36:58;5.43;;;2.03;;
2698;SDS011;1359;51.798;12.174;2022-09-09T13:39:24;8.07;;;2.20;;
2698;SDS011;1359;51.798;12.174;2022-09-09T13:41:49;2.20;;;2.00;;
2698;SDS011;1359;51.798;12.174;2022-09-09T13:44:17;2.43;;;1.53;;
2698;SDS011;1359;51.798;12.174;2022-09-09T13:46:44;2.70;;;2.00;;
2698;SDS011;1359;51.798;12.174;2022-09-09T13:51:41;3.90;;;2.17;;
2698;SDS011;1359;51.798;12.174;2022-09-09T13:54:11;4.00;;;1.90;;
2698;SDS011;1359;51.798;12.174;2022-09-09T13:56:36;4.13;;;2.10;;
2698;SDS011;1359;51.798;12.174;2022-09-09T13:59:02;2.33;;;2.00;;
2698;SDS011;1359;51.798;12.174;2022-09-09T14:01:28;2.53;;;2.23;;
2698;SDS011;1359;51.798;12.174;2022-09-09T14:03:53;2.53;;;1.67;;
2698;SDS011;1359;51.798;12.174;2022-09-09T14:06:18;4.20;;;2.30;;
2698;SDS011;1359;51.798;12.174;2022-09-09T14:08:44;2.87;;;2.50;;
2698;SDS011;1359;51.798;12.174;2022-09-09T14:11:11;4.63;;;1.87;;
2698;SDS011;1359;51.798;12.174;2022-09-09T14:13:37;4.33;;;2.13;;
2698;SDS011;1359;51.798;12.174;2022-09-09T14:16:02;2.47;;;1.93;;
2698;SDS011;1359;51.798;12.174;2022-09-09T14:18:27;2.00;;;1.20;;
2698;SDS011;1359;51.798;12.174;2022-09-09T14:20:52;8.35;;;2.15;;
2698;SDS011;1359;51.798;12.174;2022-09-09T14:23:18;2.73;;;1.90;;
2698;SDS011;1359;51.798;12.174;2022-09-09T14:25:43;2.57;;;1.53;;
2698;SDS011;1359;51.798;12.174;2022-09-09T14:28:10;3.03;;;1.50;;
2698;SDS011;1359;51.798;12.174;2022-09-09T14:30:36;6.23;;;1.80;;
2698;SDS011;1359;51.798;12.174;2022-09-09T14:33:01;2.63;;;2.00;;
2698;SDS011;1359;51.798;12.174;2022-09-09T14:35:27;2.53;;;1.43;;
2698;SDS011;1359;51.798;12.174;2022-09-09T14:37:52;2.90;;;1.60;;
2698;SDS011;1359;51.798;12.174;2022-09-09T14:40:18;4.32;;;2.13;;
2698;SDS011;1359;51.798;12.174;2022-09-09T14:42:43;2.45;;;2.00;;
2698;SDS011;1359;51.798;12.174;2022-09-09T14:45:08;4.00;;;1.85;;
2698;SDS011;1359;51.798;12.174;2022-09-09T14:47:34;2.27;;;2.07;;
2698;SDS011;1359;51.798;12.174;2022-09-09T14:49:59;3.93;;;1.77;;
2698;SDS011;1359;51.798;12.174;2022-09-09T14:52:25;2.47;;;1.90;;
2698;SDS011;1359;51.798;12.174;2022-09-09T14:54:51;5.20;;;2.10;;
2698;SDS011;1359;51.798;12.174;2022-09-09T14:57:16;3.05;;;1.30;;
2698;SDS011;1359;51.798;12.174;2022-09-09T14:59:41;8.07;;;2.03;;
2698;SDS011;1359;51.798;12.174;2022-09-09T15:02:07;5.85;;;2.05;;
2698;SDS011;1359;51.798;12.174;2022-09-09T15:04:33;2.23;;;1.37;;
2698;SDS011;1359;51.798;12.174;2022-09-09T15:06:58;5.80;;;1.60;;
2698;SDS011;1359;51.798;12.174;2022-09-09T15:09:23;5.83;;;1.70;;
2698;SDS011;1359;51.798;12.174;2022-09-09T15:11:49;2.57;;;1.30;;
2698;SDS011;1359;51.798;12.174;2022-09-09T15:14:14;2.20;;;1.70;;
2698;SDS011;1359;51.798;12.174;2022-09-09T15:16:39;4.57;;;1.65;;
2698;SDS011;1359;51.798;12.174;2022-09-09T15:19:04;3.40;;;1.90;;
2698;SDS011;1359;51.798;12.174;2022-09-09T15:21:31;3.07;;;1.50;;
2698;SDS011;1359;51.798;12.174;2022-09-09T15:23:56;1.80;;;1.40;;
2698;SDS011;1359;51.798;12.174;2022-09-09T15:26:22;3.03;;;1.97;;
2698;SDS011;1359;51.798;12.174;2022-09-09T15:28:48;2.47;;;1.33;;
2698;SDS011;1359;51.798;12.174;2022-09-09T15:31:24;3.30;;;1.53;;
2698;SDS011;1359;51.798;12.174;2022-09-09T15:33:50;2.23;;;1.70;;
2698;SDS011;1359;51.798;12.174;2022-09-09T15:36:16;2.13;;;1.27;;
2698;SDS011;1359;51.798;12.174;2022-09-09T15:38:42;7.20;;;1.93;;
2698;SDS011;1359;51.798;12.174;2022-09-09T15:41:08;5.87;;;1.60;;
2698;SDS011;1359;51.798;12.174;2022-09-09T15:43:33;5.32;;;1.90;;
2698;SDS011;1359;51.798;12.174;2022-09-09T15:45:59;2.40;;;1.80;;
2698;SDS011;1359;51.798;12.174;2022-09-09T15:48:30;3.40;;;1.50;;
2698;SDS011;1359;51.798;12.174;2022-09-09T15:51:02;6.23;;;1.77;;
2698;SDS011;1359;51.798;12.174;2022-09-09T15:53:28;3.83;;;1.40;;
2698;SDS011;1359;51.798;12.174;2022-09-09T15:55:54;4.10;;;1.45;;
2698;SDS011;1359;51.798;12.174;2022-09-09T15:58:20;3.30;;;1.20;;
2698;SDS011;1359;51.798;12.174;2022-09-09T16:00:45;2.38;;;1.95;;
2698;SDS011;1359;51.798;12.174;2022-09-09T16:03:10;1.88;;;1.23;;
2698;SDS011;1359;51.798;12.174;2022-09-09T16:05:37;1.90;;;1.60;;
2698;SDS011;1359;51.798;12.174;2022-09-09T16:08:02;5.67;;;1.70;;
2698;SDS011;1359;51.798;12.174;2022-09-09T16:10:28;3.43;;;1.50;;
2698;SDS011;1359;51.798;12.174;2022-09-09T16:12:54;2.05;;;1.20;;
2698;SDS011;1359;51.798;12.174;2022-09-09T16:15:19;4.67;;;1.63;;
2698;SDS011;1359;51.798;12.174;2022-09-09T16:17:47;4.03;;;1.43;;
2698;SDS011;1359;51.798;12.174;2022-09-09T16:20:12;1.73;;;1.20;;
2698;SDS011;1359;51.798;12.174;2022-09-09T16:22:39;2.07;;;1.20;;
2698;SDS011;1359;51.798;12.174;2022-09-09T16:25:05;2.60;;;1.20;;
2698;SDS011;1359;51.798;12.174;2022-09-09T16:27:30;3.00;;;1.77;;
2698;SDS011;1359;51.798;12.174;2022-09-09T16:29:55;2.10;;;1.35;;
2698;SDS011;1359;51.798;12.174;2022-09-09T16:32:20;1.63;;;1.17;;
2698;SDS011;1359;51.798;12.174;2022-09-09T16:34:45;5.00;;;1.20;;